Time;durP1;ratioP1;P1;durP2;ratioP2;P2;SDS_P1;SDS_P2;PMS_P1;PMS_P2;Temp;Humidity;BMP_temperature;BMP_pressure;BME280_temperature;BME280_humidity;BME280_pressure;Samples;Min_cycle;Max_cycle;Signal;HPM_P1;HPM_P2
2022/04/13 00:01:18;;;;;;;1.15;1.10;;;;;;;12.55;61.96;98226.06;4153302;28;20691;-54
2022/04/13 00:03:20;;;;;;;1.00;1.00;;;;;;;12.54;61.77;98225.28;4158654;28;20244;-55
2022/04/13 00:05:22;;;;;;;1.00;1.00;;;;;;;12.54;61.97;98225.28;4155649;28;20212;-55
2022/04/13 00:07:24;;;;;;;1.98;1.58;;;;;;;12.39;62.15;98216.16;4154184;28;20270;-54
2022/04/13 00:09:26;;;;;;;1.92;1.10;;;;;;;12.36;62.24;98225.75;4154232;28;20585;-55
2022/04/13 00:11:28;;;;;;;1.20;1.20;;;;;;;12.37;61.95;98230.13;4137913;28;20256;-53
2022/04/13 00:13:30;;;;;;;2.00;1.30;;;;;;;12.30;62.65;98224.06;4143003;28;20229;-55
2022/04/13 00:15:32;;;;;;;1.48;1.20;;;;;;;12.34;62.26;98227.94;4169515;28;20319;-55
2022/04/13 00:17:37;;;;;;;1.20;1.10;;;;;;;12.34;62.36;98219.72;4160362;28;20756;-55
2022/04/13 00:19:39;;;;;;;2.30;2.10;;;;;;;12.22;62.56;98221.84;4156517;28;20213;-54
2022/04/13 00:21:41;;;;;;;1.35;1.27;;;;;;;12.13;62.95;98228.94;4152728;28;20256;-53
2022/04/13 00:23:42;;;;;;;1.63;1.52;;;;;;;12.12;62.92;98231.94;4157613;28;20714;-55
2022/04/13 00:25:44;;;;;;;1.95;1.85;;;;;;;12.14;63.02;98227.00;4174013;28;20204;-56
2022/04/13 00:27:46;;;;;;;1.60;1.50;;;;;;;12.13;62.80;98223.47;4159802;28;20208;-53
2022/04/13 00:29:48;;;;;;;2.40;2.20;;;;;;;12.11;62.82;98225.63;4144233;28;20209;-54
2022/04/13 00:31:51;;;;;;;1.60;1.50;;;;;;;12.08;63.04;98228.91;4157791;28;20212;-54
2022/04/13 00:33:52;;;;;;;1.48;1.38;;;;;;;12.04;62.91;98225.03;4173015;28;20915;-55
2022/04/13 00:35:55;;;;;;;1.65;1.45;;;;;;;12.00;63.04;98229.44;4151619;28;20211;-54
2022/04/13 00:37:57;;;;;;;1.42;1.40;;;;;;;11.96;63.00;98233.78;4158533;28;20279;-53
2022/04/13 00:39:59;;;;;;;1.70;1.60;;;;;;;11.96;63.18;98233.78;4177506;28;20217;-55
2022/04/13 00:42:06;;;;;;;1.20;1.10;;;;;;;11.98;63.10;98237.06;4158060;28;20286;-54
2022/04/13 00:44:10;;;;;;;2.60;1.20;;;;;;;11.97;63.21;98227.19;4160138;28;20225;-56
2022/04/13 00:46:12;;;;;;;1.77;1.02;;;;;;;11.98;62.92;98231.59;4158022;28;20682;-55
2022/04/13 00:48:20;;;;;;;11.00;1.40;;;;;;;11.98;63.34;98225.28;4175416;28;20200;-54
2022/04/13 00:50:23;;;;;;;4.18;3.45;;;;;;;11.86;63.94;98219.19;4159989;28;20214;-55
2022/04/13 00:52:26;;;;;;;2.90;1.63;;;;;;;11.83;64.03;98212.31;4157668;28;20208;-53
2022/04/13 00:54:29;;;;;;;1.45;1.35;;;;;;;11.86;63.84;98224.69;4142669;28;20221;-54
2022/04/13 00:56:32;;;;;;;1.50;1.40;;;;;;;11.87;63.85;98232.66;4170473;28;20212;-54
2022/04/13 00:58:37;;;;;;;1.58;1.35;;;;;;;11.90;63.66;98212.09;4150812;28;20953;-57
2022/04/13 01:00:48;;;;;;;1.98;1.52;;;;;;;11.87;63.96;98207.13;4151396;28;20212;-55
2022/04/13 01:02:51;;;;;;;1.30;1.20;;;;;;;11.81;64.25;98213.66;4156220;28;20204;-54
2022/04/13 01:04:55;;;;;;;3.47;1.63;;;;;;;11.86;64.15;98220.03;4153318;28;20278;-54
2022/04/13 01:06:56;;;;;;;1.30;1.20;;;;;;;11.87;63.89;98213.44;4155793;28;20291;-54
2022/04/13 01:08:58;;;;;;;1.58;1.48;;;;;;;11.87;64.35;98210.72;4173821;28;20212;-54
2022/04/13 01:11:01;;;;;;;2.03;1.45;;;;;;;11.90;64.35;98201.94;4158435;28;20216;-54
2022/04/13 01:13:02;;;;;;;1.65;1.42;;;;;;;11.95;63.77;98207.47;4175601;28;20196;-54
2022/04/13 01:15:05;;;;;;;1.55;1.45;;;;;;;11.98;64.09;98209.66;4171076;28;20236;-54
2022/04/13 01:17:07;;;;;;;1.30;1.10;;;;;;;11.95;64.03;98221.16;4171398;28;20246;-54
2022/04/13 01:19:13;;;;;;;1.13;1.10;;;;;;;11.96;63.93;98220.06;4156354;28;20747;-55
2022/04/13 01:21:17;;;;;;;1.08;1.08;;;;;;;11.97;63.59;98229.94;4174729;28;20732;-54
2022/04/13 01:23:20;;;;;;;1.50;1.40;;;;;;;11.96;64.22;98225.56;4158185;28;20213;-54
2022/04/13 01:25:22;;;;;;;2.33;1.83;;;;;;;11.94;64.03;98232.41;4160281;28;20324;-55
2022/04/13 01:27:26;;;;;;;1.55;1.45;;;;;;;11.93;64.45;98234.31;4154867;28;20266;-55
2022/04/13 01:29:27;;;;;;;4.20;1.70;;;;;;;11.88;63.79;98226.06;4172990;28;20204;-54
2022/04/13 01:31:29;;;;;;;1.65;1.55;;;;;;;11.84;64.29;98233.16;4154014;28;20209;-57
2022/04/13 01:33:31;;;;;;;1.90;1.80;;;;;;;11.83;63.74;98241.66;4156369;28;20625;-56
2022/04/13 01:35:33;;;;;;;2.22;1.70;;;;;;;11.83;63.84;98245.22;4155565;28;20265;-56
2022/04/13 01:37:35;;;;;;;1.50;1.40;;;;;;;11.82;63.76;98243.56;4136716;28;20322;-57
2022/04/13 01:39:36;;;;;;;1.77;1.20;;;;;;;11.81;64.02;98247.41;4155602;28;20213;-57
2022/04/13 01:41:38;;;;;;;1.88;1.63;;;;;;;11.82;64.30;98243.56;4172557;28;20216;-56
2022/04/13 01:43:40;;;;;;;1.73;1.50;;;;;;;11.79;64.23;98249.59;4151461;28;20225;-54
2022/04/13 01:45:41;;;;;;;1.52;1.42;;;;;;;11.76;64.03;98255.59;4171071;28;20219;-55
2022/04/13 01:47:43;;;;;;;1.75;1.65;;;;;;;11.73;64.43;98256.13;4170909;28;20287;-55
2022/04/13 01:49:45;;;;;;;2.42;2.22;;;;;;;11.69;64.30;98257.72;4150146;28;20205;-55
2022/04/13 01:51:46;;;;;;;1.50;1.40;;;;;;;11.65;64.58;98262.06;4153831;28;20205;-56
2022/04/13 01:53:50;;;;;;;1.50;1.40;;;;;;;11.59;64.57;98260.41;4153478;28;20812;-54
2022/04/13 01:55:53;;;;;;;1.73;1.35;;;;;;;11.50;64.45;98270.16;4157163;28;20215;-54
2022/04/13 01:57:55;;;;;;;2.60;2.00;;;;;;;11.42;65.26;98276.13;4155073;28;20213;-54
2022/04/13 01:59:57;;;;;;;2.25;2.15;;;;;;;11.39;65.16;98270.34;4171671;28;20212;-55
2022/04/13 02:01:58;;;;;;;1.67;1.58;;;;;;;11.35;65.14;98282.91;4133768;28;20610;-54
2022/04/13 02:04:01;;;;;;;1.60;1.50;;;;;;;11.35;65.11;98274.69;4159617;28;20230;-56
2022/04/13 02:06:03;;;;;;;2.28;2.08;;;;;;;11.32;65.18;98276.03;4140721;28;20733;-55
2022/04/13 02:08:05;;;;;;;2.45;1.60;;;;;;;11.33;65.20;98283.19;4155349;28;20237;-55
2022/04/13 02:10:09;;;;;;;1.38;1.27;;;;;;;11.28;65.38;98280.38;4154050;28;20260;-56
2022/04/13 02:12:11;;;;;;;1.73;1.63;;;;;;;11.26;65.40;98282.56;4174720;28;20247;-57
2022/04/13 02:14:13;;;;;;;2.17;1.90;;;;;;;11.23;65.32;98280.34;4174950;28;20238;-56
2022/04/13 02:16:15;;;;;;;1.63;1.33;;;;;;;11.18;65.57;98285.75;4155521;28;20215;-55
2022/04/13 02:18:17;;;;;;;1.50;1.40;;;;;;;11.14;65.37;98279.16;4153858;28;20788;-55
2022/04/13 02:20:18;;;;;;;1.42;1.33;;;;;;;11.09;65.61;98281.84;4155024;28;20679;-55
2022/04/13 02:22:20;;;;;;;1.33;1.23;;;;;;;11.02;65.87;98283.97;4154088;28;20661;-57
2022/04/13 02:24:42;;;;;;;1.98;1.88;;;;;;;10.99;65.98;98287.25;4153173;28;20750;-54
2022/04/13 02:26:44;;;;;;;3.75;1.98;;;;;;;11.02;66.01;98286.72;4168302;28;20201;-55
2022/04/13 02:28:48;;;;;;;2.65;1.50;;;;;;;10.98;66.25;98282.00;4150608;28;20201;-56
2022/04/13 02:30:49;;;;;;;1.70;1.60;;;;;;;10.91;65.90;98276.72;4173677;28;20196;-55
2022/04/13 02:32:51;;;;;;;1.85;1.30;;;;;;;10.91;66.11;98284.94;4156457;28;20211;-54
2022/04/13 02:34:53;;;;;;;1.77;1.52;;;;;;;10.85;66.39;98283.22;4169418;28;20223;-56
2022/04/13 02:36:56;;;;;;;3.15;1.95;;;;;;;10.81;66.17;98288.66;4155854;28;20209;-56
2022/04/13 02:38:58;;;;;;;1.65;1.55;;;;;;;10.81;66.29;98285.94;4170316;28;20258;-54
2022/04/13 02:41:00;;;;;;;2.20;2.00;;;;;;;10.79;66.31;98291.66;4154618;28;20241;-56
2022/04/13 02:43:02;;;;;;;2.15;1.98;;;;;;;10.77;66.39;98289.16;4151586;28;20217;-56
2022/04/13 02:45:05;;;;;;;1.80;1.50;;;;;;;10.71;66.34;98294.00;4140375;28;20227;-57
2022/04/13 02:47:07;;;;;;;2.10;1.90;;;;;;;10.67;66.53;98298.38;4174584;28;20261;-56
2022/04/13 02:49:08;;;;;;;1.15;1.15;;;;;;;10.68;66.29;98284.41;4157680;28;20300;-55
2022/04/13 02:51:10;;;;;;;1.65;1.55;;;;;;;10.67;66.67;98288.22;4156647;28;20207;-55
2022/04/13 02:53:12;;;;;;;1.73;1.63;;;;;;;10.66;66.94;98281.09;4173531;28;20212;-54
2022/04/13 02:55:13;;;;;;;5.63;1.80;;;;;;;10.63;66.67;98289.00;4174371;28;20204;-55
2022/04/13 02:57:15;;;;;;;1.70;1.40;;;;;;;10.60;66.56;98287.59;4172460;28;20245;-56
2022/04/13 02:59:17;;;;;;;1.90;1.50;;;;;;;10.59;66.55;98285.09;4171774;28;20653;-57
2022/04/13 03:01:19;;;;;;;2.95;2.75;;;;;;;10.57;66.82;98282.66;4152115;28;20202;-56
2022/04/13 03:03:21;;;;;;;2.60;1.70;;;;;;;10.55;66.51;98284.78;4155736;28;20295;-56
2022/04/13 03:05:23;;;;;;;2.42;1.70;;;;;;;10.53;66.68;98286.13;4158429;28;20259;-54
2022/04/13 03:07:28;;;;;;;1.60;1.50;;;;;;;10.53;66.59;98284.22;4141058;28;20201;-55
2022/04/13 03:09:29;;;;;;;2.20;2.00;;;;;;;10.51;66.72;98288.31;4156354;28;20263;-55
2022/04/13 03:11:31;;;;;;;2.00;1.60;;;;;;;10.46;67.40;98280.03;4171254;28;20222;-54
2022/04/13 03:13:33;;;;;;;2.53;1.70;;;;;;;10.42;66.74;98281.63;4157291;28;20742;-54
2022/04/13 03:15:35;;;;;;;1.40;1.30;;;;;;;10.43;67.02;98281.38;4173205;28;20211;-55
2022/04/13 03:17:37;;;;;;;2.50;1.63;;;;;;;10.42;66.60;98284.38;4155504;28;20212;-54
2022/04/13 03:19:38;;;;;;;2.00;1.25;;;;;;;10.40;67.00;98289.25;4173295;28;20310;-56
2022/04/13 03:21:40;;;;;;;2.88;2.67;;;;;;;10.39;67.12;98282.13;4155997;28;20258;-57
2022/04/13 03:23:42;;;;;;;2.35;2.15;;;;;;;10.39;67.18;98284.88;4138887;28;20355;-55
2022/04/13 03:25:43;;;;;;;1.73;1.63;;;;;;;10.33;67.18;98283.13;4149565;28;20261;-54
2022/04/13 03:27:45;;;;;;;2.47;2.00;;;;;;;10.33;67.25;98291.34;4154205;28;20753;-54
2022/04/13 03:29:47;;;;;;;1.70;1.48;;;;;;;10.31;67.41;98290.78;4157534;28;20201;-57
2022/04/13 03:31:49;;;;;;;1.92;1.83;;;;;;;10.28;67.35;98288.56;4169172;28;20212;-57
2022/04/13 03:33:51;;;;;;;1.77;1.58;;;;;;;10.27;67.51;98292.38;4154581;28;20706;-55
2022/04/13 03:35:52;;;;;;;2.35;1.88;;;;;;;10.24;67.59;98285.50;4148421;28;20217;-57
2022/04/13 03:37:54;;;;;;;2.13;1.77;;;;;;;10.23;67.24;98286.59;4153523;28;20213;-55
2022/04/13 03:39:56;;;;;;;1.80;1.50;;;;;;;10.24;67.40;98290.16;4153961;28;20274;-55
2022/04/13 03:41:57;;;;;;;2.17;1.98;;;;;;;10.26;67.61;98287.97;4151809;28;20271;-54
2022/04/13 03:43:59;;;;;;;1.40;1.30;;;;;;;10.28;67.48;98283.09;4153891;28;21527;-54
2022/04/13 03:46:01;;;;;;;1.67;1.42;;;;;;;10.32;67.36;98289.69;4151391;28;20239;-55
2022/04/13 03:48:08;;;;;;;1.98;1.77;;;;;;;10.32;67.62;98289.69;4150144;28;20212;-55
2022/04/13 03:50:10;;;;;;;2.00;1.75;;;;;;;10.29;67.65;98279.28;4173218;28;20212;-54
2022/04/13 03:52:12;;;;;;;2.03;1.83;;;;;;;10.27;67.43;98286.91;4154542;28;20810;-54
2022/04/13 03:54:14;;;;;;;2.17;1.73;;;;;;;10.24;67.65;98276.47;4155522;28;20232;-54
2022/04/13 03:56:16;;;;;;;2.13;1.90;;;;;;;10.24;67.66;98281.94;4156017;28;20216;-55
2022/04/13 03:58:17;;;;;;;4.15;2.35;;;;;;;10.21;67.29;98282.47;4154586;28;20212;-54
2022/04/13 04:00:19;;;;;;;1.65;1.55;;;;;;;10.19;67.77;98279.13;4169790;28;20250;-54
2022/04/13 04:02:21;;;;;;;1.77;1.67;;;;;;;10.19;67.98;98290.06;4139410;28;20654;-55
2022/04/13 04:04:23;;;;;;;1.42;1.33;;;;;;;10.13;67.75;98286.44;4157468;28;20244;-55
2022/04/13 04:06:25;;;;;;;2.15;2.05;;;;;;;10.11;67.92;98282.31;4154206;28;20216;-55
2022/04/13 04:08:27;;;;;;;1.80;1.33;;;;;;;10.06;67.73;98283.06;4169434;28;20224;-55
2022/04/13 04:10:29;;;;;;;1.80;1.60;;;;;;;10.04;67.67;98281.66;4171747;28;20212;-56
2022/04/13 04:12:41;;;;;;;1.70;1.60;;;;;;;10.02;67.89;98281.06;4148281;28;20610;-55
2022/04/13 04:14:43;;;;;;;2.28;2.03;;;;;;;9.99;67.95;98278.81;4170999;28;20259;-55
2022/04/13 04:16:45;;;;;;;1.85;1.70;;;;;;;9.95;68.11;98278.50;4151135;28;20215;-56
2022/04/13 04:18:48;;;;;;;1.42;1.25;;;;;;;9.94;67.94;98282.31;4154860;28;20357;-55
2022/04/13 04:20:50;;;;;;;1.80;1.70;;;;;;;9.92;68.36;98283.66;4151343;28;20263;-55
2022/04/13 04:22:51;;;;;;;1.75;1.60;;;;;;;9.89;68.39;98284.16;4156563;28;20208;-55
2022/04/13 04:24:53;;;;;;;2.28;2.13;;;;;;;9.89;68.68;98278.69;4155003;28;20298;-55
2022/04/13 04:26:58;;;;;;;2.53;2.33;;;;;;;9.86;68.41;98279.19;4171339;28;20208;-55
2022/04/13 04:29:00;;;;;;;1.40;1.30;;;;;;;9.83;68.69;98285.16;4155262;28;20224;-55
2022/04/13 04:31:02;;;;;;;1.98;1.73;;;;;;;9.84;68.26;98273.16;4158341;28;20201;-55
2022/04/13 04:33:08;;;;;;;1.98;1.88;;;;;;;9.83;68.15;98285.16;4156440;28;20255;-55
2022/04/13 04:35:10;;;;;;;2.60;2.40;;;;;;;9.80;68.50;98278.28;4157058;28;20243;-55
2022/04/13 04:37:12;;;;;;;2.35;1.38;;;;;;;9.78;68.39;98283.19;4156358;28;20224;-56
2022/04/13 04:39:13;;;;;;;2.55;1.73;;;;;;;9.74;68.69;98281.22;4156807;28;20603;-55
2022/04/13 04:41:15;;;;;;;1.95;1.70;;;;;;;9.69;68.11;98281.13;4174296;28;20262;-55
2022/04/13 04:43:17;;;;;;;1.77;1.67;;;;;;;9.66;68.68;98282.44;4174343;28;20207;-55
2022/04/13 04:45:19;;;;;;;1.27;1.15;;;;;;;9.66;68.63;98287.06;4155524;28;20201;-55
2022/04/13 04:47:21;;;;;;;2.45;2.20;;;;;;;9.66;68.51;98289.81;4156829;28;20212;-56
2022/04/13 04:49:22;;;;;;;2.08;1.83;;;;;;;9.69;68.52;98292.06;4154983;28;20266;-54
2022/04/13 04:51:24;;;;;;;1.77;1.67;;;;;;;9.69;68.36;98295.59;4154097;28;20205;-55
2022/04/13 04:53:26;;;;;;;2.80;1.73;;;;;;;9.72;68.69;98297.00;4152512;28;20205;-55
2022/04/13 04:55:28;;;;;;;1.63;1.52;;;;;;;9.70;68.64;98299.16;4155971;28;20208;-54
2022/04/13 04:57:30;;;;;;;1.70;1.45;;;;;;;9.69;68.55;98297.53;4139272;28;20209;-54
2022/04/13 04:59:31;;;;;;;1.70;1.60;;;;;;;9.64;68.25;98291.97;4155096;28;20229;-54
2022/04/13 05:01:33;;;;;;;2.03;1.83;;;;;;;9.63;68.01;98306.72;4151659;28;20213;-54
2022/04/13 05:03:35;;;;;;;2.33;1.70;;;;;;;9.64;67.97;98302.91;4156704;28;20229;-54
2022/04/13 05:05:39;;;;;;;2.40;2.30;;;;;;;9.62;68.37;98305.06;4138983;28;20284;-54
2022/04/13 05:07:42;;;;;;;3.60;1.90;;;;;;;9.63;69.00;98323.09;4135927;28;20295;-54
2022/04/13 05:09:43;;;;;;;2.70;2.42;;;;;;;9.65;68.33;98318.19;4152016;28;20205;-55
2022/04/13 05:11:45;;;;;;;2.13;2.03;;;;;;;9.68;68.42;98315.00;4138701;28;20359;-54
2022/04/13 05:13:47;;;;;;;2.20;2.03;;;;;;;9.72;68.44;98325.16;4156549;28;20238;-54
2022/04/13 05:15:49;;;;;;;2.20;2.03;;;;;;;9.74;68.43;98319.47;4153560;28;20208;-54
2022/04/13 05:17:51;;;;;;;2.28;2.10;;;;;;;9.75;68.17;98323.84;4159037;28;20662;-54
2022/04/13 05:19:52;;;;;;;2.30;2.08;;;;;;;9.76;68.23;98329.03;4157832;28;20220;-54
2022/04/13 05:21:54;;;;;;;4.05;2.70;;;;;;;9.79;68.49;98338.66;4150033;28;20282;-54
2022/04/13 05:23:55;;;;;;;2.35;2.20;;;;;;;9.79;68.95;98346.84;4158237;28;20263;-54
2022/04/13 05:25:57;;;;;;;1.88;1.73;;;;;;;9.84;69.08;98349.66;4169487;28;20203;-54
2022/04/13 05:28:02;;;;;;;2.88;2.60;;;;;;;9.81;69.10;98348.25;4152555;28;20239;-54
2022/04/13 05:30:06;;;;;;;2.50;2.30;;;;;;;9.88;68.88;98348.09;4155286;28;20671;-54
2022/04/13 05:32:12;;;;;;;2.80;2.40;;;;;;;9.96;68.66;98347.69;4157045;28;20262;-55
2022/04/13 05:34:14;;;;;;;2.78;2.22;;;;;;;10.06;68.07;98345.09;4151601;28;20267;-53
2022/04/13 05:36:16;;;;;;;2.63;2.38;;;;;;;10.16;68.15;98348.81;4160904;28;20677;-54
2022/04/13 05:38:18;;;;;;;2.70;1.95;;;;;;;10.27;67.75;98363.50;4157381;28;20270;-54
2022/04/13 05:40:19;;;;;;;5.03;1.85;;;;;;;10.30;68.20;98373.91;4152080;28;20295;-54
2022/04/13 05:42:23;;;;;;;2.38;2.17;;;;;;;10.35;68.11;98361.13;4135202;28;20288;-54
2022/04/13 05:44:25;;;;;;;2.60;2.05;;;;;;;10.40;68.93;98357.63;4155188;28;20242;-54
2022/04/13 05:46:26;;;;;;;2.92;2.53;;;;;;;10.43;68.53;98360.72;4175546;28;20216;-54
2022/04/13 05:48:28;;;;;;;2.75;2.17;;;;;;;10.48;69.46;98359.94;4160007;28;20209;-54
2022/04/13 05:50:30;;;;;;;2.65;2.38;;;;;;;10.51;69.96;98359.44;4141448;28;20308;-54
2022/04/13 05:52:32;;;;;;;1.27;1.25;;;;;;;10.42;69.99;98360.97;4159776;28;20209;-54
2022/04/13 05:54:33;;;;;;;7.88;2.92;;;;;;;10.40;69.80;98366.69;4176309;28;20263;-53
2022/04/13 05:56:35;;;;;;;2.10;1.70;;;;;;;10.22;69.96;98368.88;4175424;28;20230;-54
2022/04/13 05:58:37;;;;;;;2.22;2.03;;;;;;;10.07;70.56;98360.47;4154536;28;20213;-54
2022/04/13 06:00:39;;;;;;;1.75;1.65;;;;;;;9.87;71.67;98351.91;4157717;28;20212;-54
2022/04/13 06:02:41;;;;;;;2.75;2.55;;;;;;;9.92;71.53;98338.31;4151202;28;20216;-53
2022/04/13 06:04:43;;;;;;;2.50;2.30;;;;;;;10.00;71.06;98335.13;4149018;28;20568;-58
2022/04/13 06:06:47;;;;;;;2.58;1.83;;;;;;;10.04;71.08;98341.81;4170502;28;20212;-52
2022/04/13 06:08:53;;;;;;;3.25;2.95;;;;;;;9.99;71.70;98333.50;4161031;28;20228;-52
2022/04/13 06:10:59;;;;;;;2.25;1.73;;;;;;;10.02;71.60;98330.28;4176062;28;20203;-51
2022/04/13 06:13:01;;;;;;;1.95;1.75;;;;;;;10.00;71.61;98337.88;4159081;28;20666;-52
2022/04/13 06:15:08;;;;;;;2.35;2.20;;;;;;;10.07;72.00;98344.88;4175210;28;20253;-52
2022/04/13 06:17:10;;;;;;;2.03;1.80;;;;;;;10.16;71.06;98346.09;4159254;28;20557;-52
2022/04/13 06:19:11;;;;;;;1.95;1.77;;;;;;;10.20;70.79;98357.34;4142021;28;20221;-52
2022/04/13 06:21:13;;;;;;;3.05;2.03;;;;;;;10.35;70.72;98383.00;4176190;28;20204;-52
2022/04/13 06:23:15;;;;;;;2.80;2.60;;;;;;;10.07;71.48;98382.31;4176108;28;20250;-52
2022/04/13 06:25:16;;;;;;;2.42;2.13;;;;;;;10.04;71.60;98377.34;4160696;28;20217;-51
2022/04/13 06:27:21;;;;;;;2.67;2.47;;;;;;;10.16;71.98;98399.94;4151916;28;20213;-52
2022/04/13 06:29:23;;;;;;;2.28;2.17;;;;;;;10.13;71.85;98395.81;4160000;28;20204;-52
2022/04/13 06:31:25;;;;;;;2.70;2.50;;;;;;;10.24;71.74;98396.78;4159697;28;20720;-52
2022/04/13 06:33:26;;;;;;;3.75;2.40;;;;;;;10.39;71.71;98405.22;4158930;28;20228;-55
2022/04/13 06:35:28;;;;;;;2.10;1.90;;;;;;;10.49;71.31;98410.84;4170393;28;20219;-54
2022/04/13 06:37:30;;;;;;;1.77;1.67;;;;;;;10.56;70.98;98406.03;4155899;28;20251;-57
2022/04/13 06:39:32;;;;;;;2.00;1.90;;;;;;;10.64;70.49;98409.16;4156214;28;20213;-57
2022/04/13 06:41:33;;;;;;;7.15;2.38;;;;;;;10.82;69.77;98412.41;4156845;28;20675;-56
2022/04/13 06:43:35;;;;;;;1.67;1.58;;;;;;;10.87;69.78;98414.38;4156077;28;20232;-57
2022/04/13 06:45:37;;;;;;;1.90;1.80;;;;;;;11.00;69.65;98414.84;4169748;28;20246;-56
2022/04/13 06:47:39;;;;;;;1.90;1.52;;;;;;;11.16;69.31;98429.50;4156628;28;20224;-54
2022/04/13 06:49:41;;;;;;;2.83;2.00;;;;;;;11.31;69.09;98436.00;4157484;28;20204;-55
2022/04/13 06:51:43;;;;;;;1.83;1.73;;;;;;;11.40;68.60;98437.22;4173865;28;20322;-56
2022/04/13 06:53:44;;;;;;;1.98;1.77;;;;;;;11.54;68.24;98441.22;4153200;28;20320;-56
2022/04/13 06:55:50;;;;;;;2.05;1.70;;;;;;;11.67;68.23;98427.13;4160561;28;20228;-55
2022/04/13 06:57:52;;;;;;;1.75;1.55;;;;;;;11.70;68.48;98432.06;4176810;28;20196;-56
2022/04/13 06:59:54;;;;;;;2.60;1.63;;;;;;;11.82;68.31;98427.25;4161482;28;20955;-56
2022/04/13 07:01:56;;;;;;;1.85;1.75;;;;;;;11.86;68.01;98431.16;4142533;28;20209;-56
2022/04/13 07:03:58;;;;;;;2.10;1.60;;;;;;;12.05;67.69;98434.31;4159682;28;20220;-57
2022/04/13 07:06:00;;;;;;;2.55;1.95;;;;;;;12.27;68.78;98432.28;4157930;28;20304;-56
2022/04/13 07:08:05;;;;;;;2.03;1.92;;;;;;;12.55;67.65;98446.50;4171584;28;20208;-56
2022/04/13 07:10:07;;;;;;;2.33;1.73;;;;;;;12.91;67.42;98439.31;4135787;28;20332;-55
2022/04/13 07:12:14;;;;;;;1.77;1.67;;;;;;;13.02;67.00;98452.84;4157544;28;20574;-56
2022/04/13 07:14:17;;;;;;;10.20;2.22;;;;;;;13.31;66.27;98450.53;4157343;28;20294;-57
2022/04/13 07:16:18;;;;;;;2.97;2.00;;;;;;;13.61;65.74;98456.94;4160281;28;20208;-55
2022/04/13 07:18:23;;;;;;;1.73;1.40;;;;;;;13.63;64.32;98454.75;4137344;28;20201;-56
2022/04/13 07:20:25;;;;;;;1.65;1.55;;;;;;;13.83;63.96;98460.28;4173742;28;20224;-55
2022/04/13 07:22:30;;;;;;;2.15;2.03;;;;;;;13.92;63.56;98469.69;4158368;28;20232;-55
2022/04/13 07:24:32;;;;;;;2.85;1.90;;;;;;;13.78;63.75;98467.72;4172828;28;20231;-56
2022/04/13 07:26:33;;;;;;;1.90;1.58;;;;;;;13.85;63.56;98469.13;4158941;28;20699;-57
2022/04/13 07:28:35;;;;;;;2.28;2.00;;;;;;;13.84;63.88;98467.44;4159214;28;20544;-59
2022/04/13 07:30:37;;;;;;;1.73;1.63;;;;;;;14.07;63.92;98477.94;4158351;28;20200;-54
2022/04/13 07:32:40;;;;;;;2.25;2.05;;;;;;;14.17;64.23;98475.19;4159147;28;20267;-57
2022/04/13 07:34:45;;;;;;;2.38;2.15;;;;;;;14.52;63.33;98469.75;4136797;28;20221;-57
2022/04/13 07:36:47;;;;;;;2.13;1.90;;;;;;;14.69;62.50;98480.47;4174435;28;20729;-55
2022/04/13 07:38:52;;;;;;;1.85;1.75;;;;;;;14.71;61.88;98479.06;4157254;28;20208;-55
2022/04/13 07:40:54;;;;;;;3.17;1.92;;;;;;;15.03;61.26;98468.53;4157540;28;20220;-60
2022/04/13 07:42:56;;;;;;;2.45;2.22;;;;;;;15.40;60.49;98477.28;4155900;28;20196;-55
2022/04/13 07:45:02;;;;;;;7.65;1.60;;;;;;;15.54;60.34;98478.31;4159450;28;20266;-54
2022/04/13 07:47:04;;;;;;;2.00;1.80;;;;;;;15.87;59.13;98477.59;4159447;28;20643;-56
2022/04/13 07:49:06;;;;;;;2.00;1.90;;;;;;;16.22;58.38;98485.63;4158555;28;20214;-57
2022/04/13 07:51:08;;;;;;;2.90;1.85;;;;;;;16.50;57.97;98482.13;4156549;28;20295;-58
2022/04/13 07:53:11;;;;;;;1.73;1.63;;;;;;;16.56;57.91;98480.97;4154338;28;20255;-56
2022/04/13 07:55:13;;;;;;;1.30;1.20;;;;;;;17.15;56.85;98473.22;4154637;28;20270;-60
2022/04/13 07:57:15;;;;;;;1.73;1.30;;;;;;;17.20;56.33;98473.97;4171251;28;20662;-57
2022/04/13 07:59:17;;;;;;;1.30;1.20;;;;;;;17.19;56.74;98477.06;4154858;28;20212;-55
2022/04/13 08:01:19;;;;;;;2.17;1.48;;;;;;;17.33;56.70;98478.00;4171637;28;20211;-58
2022/04/13 08:03:21;;;;;;;1.52;1.42;;;;;;;17.54;55.23;98476.66;4155166;28;20296;-58
2022/04/13 08:05:36;;;;;;;1.85;1.23;;;;;;;17.06;55.70;98477.75;4153146;28;20204;-56
2022/04/13 08:07:38;;;;;;;1.13;1.02;;;;;;;16.66;55.76;98469.84;4160568;28;20208;-58
2022/04/13 08:09:41;;;;;;;3.17;1.25;;;;;;;16.82;56.23;98474.13;4159717;28;20201;-58
2022/04/13 08:11:45;;;;;;;1.30;1.17;;;;;;;16.94;55.75;98463.50;4176914;28;20286;-54
2022/04/13 08:13:48;;;;;;;0.93;0.93;;;;;;;16.84;55.17;98469.09;4145034;28;20244;-58
2022/04/13 08:15:50;;;;;;;2.03;1.48;;;;;;;17.23;54.92;98461.50;4174983;28;20208;-56
2022/04/13 08:17:52;;;;;;;1.55;1.23;;;;;;;17.47;54.47;98465.13;4157941;28;20204;-59
2022/04/13 08:19:54;;;;;;;3.60;1.10;;;;;;;17.72;53.55;98462.84;4160377;28;20221;-57
2022/04/13 08:21:56;;;;;;;1.25;0.82;;;;;;;17.63;53.74;98467.41;4161398;28;20266;-58
2022/04/13 08:23:57;;;;;;;1.40;1.15;;;;;;;17.84;53.66;98476.28;4160831;28;20863;-57
2022/04/13 08:25:59;;;;;;;1.83;1.52;;;;;;;17.87;54.26;98479.28;4159061;28;20201;-57
2022/04/13 08:28:01;;;;;;;1.20;1.10;;;;;;;18.37;52.93;98481.31;4161754;28;20215;-57
2022/04/13 08:30:03;;;;;;;2.17;1.63;;;;;;;18.37;52.56;98474.94;4178632;28;20593;-56
2022/04/13 08:32:06;;;;;;;1.02;1.02;;;;;;;18.75;51.55;98476.53;4159605;28;20228;-57
2022/04/13 08:34:07;;;;;;;1.15;1.05;;;;;;;19.05;50.45;98481.56;4174977;28;20625;-55
2022/04/13 08:36:09;;;;;;;0.75;0.75;;;;;;;19.12;49.56;98481.97;4162191;28;20570;-56
2022/04/13 08:38:11;;;;;;;1.70;1.05;;;;;;;19.13;48.74;98489.16;4161483;28;20197;-56
2022/04/13 08:40:14;;;;;;;1.50;0.90;;;;;;;19.51;48.62;98490.69;4177431;28;20228;-56
2022/04/13 08:42:38;;;;;;;0.73;0.73;;;;;;;19.90;46.57;98488.19;4162484;28;20212;-56
2022/04/13 08:44:46;;;;;;;1.05;0.95;;;;;;;19.40;46.45;98490.06;4156378;28;20699;-59
2022/04/13 08:46:50;;;;;;;0.75;0.73;;;;;;;20.02;45.58;98492.06;4156308;28;20216;-59
2022/04/13 08:48:56;;;;;;;0.90;0.90;;;;;;;20.37;46.39;98487.69;4154910;28;20205;-58
2022/04/13 08:51:19;;;;;;;0.85;0.65;;;;;;;20.26;45.08;98492.66;4157023;28;20254;-57
2022/04/13 08:53:29;;;;;;;0.85;0.85;;;;;;;20.49;46.02;98490.72;4155184;28;20212;-55
2022/04/13 08:55:31;;;;;;;1.02;0.70;;;;;;;20.80;45.33;98491.63;4152462;28;20204;-57
2022/04/13 08:57:46;;;;;;;1.45;0.68;;;;;;;21.00;45.24;98496.72;4155969;28;20254;-54
2022/04/13 09:00:14;;;;;;;0.52;0.52;;;;;;;21.20;44.73;98494.22;4157301;28;20217;-54
2022/04/13 09:02:57;;;;;;;1.38;0.80;;;;;;;21.24;44.54;98486.06;4150766;28;20219;-54
2022/04/13 09:05:00;;;;;;;0.80;0.80;;;;;;;21.12;44.85;98494.16;4154723;28;20216;-57
2022/04/13 09:07:02;;;;;;;0.60;0.60;;;;;;;20.83;44.63;98485.41;4153104;28;20674;-59
2022/04/13 09:09:08;;;;;;;1.40;0.63;;;;;;;20.85;44.23;98478.41;4154010;28;20205;-54
2022/04/13 09:11:13;;;;;;;0.70;0.70;;;;;;;21.06;44.70;98495.44;4154990;28;20192;-55
2022/04/13 09:13:16;;;;;;;0.95;0.80;;;;;;;20.97;44.28;98486.22;4155369;28;20752;-54
2022/04/13 09:15:18;;;;;;;0.55;0.55;;;;;;;20.67;44.43;98484.16;4173340;28;20223;-56
2022/04/13 09:17:19;;;;;;;1.13;0.82;;;;;;;20.93;43.92;98485.22;4159499;28;20212;-56
2022/04/13 09:19:23;;;;;;;5.57;1.23;;;;;;;21.04;44.54;98476.25;4155792;28;21062;-57
2022/04/13 09:21:25;;;;;;;1.02;0.95;;;;;;;21.46;43.55;98480.41;4151439;28;20220;-56
2022/04/13 09:23:30;;;;;;;0.82;0.75;;;;;;;21.56;43.96;98477.34;4171272;28;20911;-56
2022/04/13 09:25:33;;;;;;;1.00;0.80;;;;;;;21.82;42.90;98469.91;4156251;28;20263;-57
2022/04/13 09:27:36;;;;;;;4.88;1.00;;;;;;;21.46;41.70;98467.31;4170010;28;20715;-58
2022/04/13 09:29:42;;;;;;;0.50;0.50;;;;;;;21.44;42.28;98475.16;4156075;28;20294;-56
2022/04/13 09:31:49;;;;;;;0.80;0.80;;;;;;;21.26;41.99;98481.81;4170962;28;20664;-55
2022/04/13 09:33:51;;;;;;;1.10;0.90;;;;;;;21.55;40.91;98478.47;4138609;28;20229;-56
2022/04/13 09:35:55;;;;;;;0.75;0.63;;;;;;;21.52;40.86;98479.94;4173988;28;20212;-57
2022/04/13 09:37:59;;;;;;;8.88;1.08;;;;;;;21.78;39.72;98485.66;4157246;28;20204;-57
2022/04/13 09:40:02;;;;;;;0.80;0.55;;;;;;;22.19;39.04;98488.88;4152112;28;20278;-56